createdAt,value
2022-11-21T00:01:28.657Z,71.84
2022-11-21T00:03:55.147Z,72.15
2022-11-21T00:06:23.465Z,72.33
2022-11-21T00:08:50.597Z,73.03
2022-11-21T00:11:17.376Z,73.49
2022-11-21T00:13:44.438Z,73.78
2022-11-21T00:16:15.509Z,72.74
2022-11-21T00:18:44.010Z,72.81
2022-11-21T00:21:17.733Z,72.86
2022-11-21T00:23:46.431Z,72.56
2022-11-21T00:26:16.051Z,72.50
2022-11-21T00:28:42.548Z,72.21
2022-11-21T00:31:09.918Z,71.48
2022-11-21T00:33:38.889Z,72.09
2022-11-21T00:36:09.799Z,72.25
2022-11-21T00:38:37.118Z,71.99
2022-11-21T00:41:03.847Z,71.99
2022-11-21T00:43:30.304Z,71.98
2022-11-21T00:45:56.830Z,71.34
2022-11-21T00:48:23.331Z,71.37
2022-11-21T00:50:49.950Z,71.50
2022-11-21T00:53:16.475Z,71.35
2022-11-21T00:55:42.971Z,71.73
2022-11-21T00:58:09.413Z,72.21
2022-11-21T01:00:35.975Z,72.20
2022-11-21T01:03:02.534Z,72.76
2022-11-21T01:05:28.968Z,74.02
2022-11-21T01:07:55.442Z,73.23
2022-11-21T01:10:21.944Z,75.72
2022-11-21T01:12:48.393Z,76.27
2022-11-21T01:15:15.635Z,74.85
2022-11-21T01:17:42.353Z,75.71
2022-11-21T01:20:09.697Z,74.43
2022-11-21T01:22:36.257Z,73.70
2022-11-21T01:25:03.457Z,74.46
2022-11-21T01:27:29.897Z,75.83
2022-11-21T01:29:56.339Z,73.94
2022-11-21T01:32:22.760Z,74.67
2022-11-21T01:34:49.233Z,73.49
2022-11-21T01:37:15.693Z,73.54
2022-11-21T01:39:42.146Z,72.81
2022-11-21T01:42:12.553Z,72.12
2022-11-21T01:45:44.114Z,73.16
2022-11-21T01:48:10.698Z,72.83
2022-11-21T01:50:37.652Z,72.10
2022-11-21T01:53:04.315Z,71.10
2022-11-21T01:55:31.412Z,71.49
2022-11-21T01:57:57.930Z,72.66
2022-11-21T02:00:31.876Z,72.19
2022-11-21T02:03:07.775Z,71.31
2022-11-21T02:05:38.793Z,71.39
2022-11-21T02:08:17.797Z,71.90
2022-11-21T02:11:00.801Z,72.70
2022-11-21T02:13:27.935Z,72.11
2022-11-21T02:15:55.271Z,72.27
2022-11-21T02:18:21.697Z,71.61
2022-11-21T02:20:58.740Z,71.32
2022-11-21T02:23:41.572Z,71.21
2022-11-21T02:26:09.053Z,71.11
2022-11-21T02:28:35.544Z,71.63
2022-11-21T02:31:02.028Z,70.92
2022-11-21T02:33:28.507Z,70.81
2022-11-21T02:36:00.822Z,70.95
2022-11-21T02:38:38.803Z,70.73
2022-11-21T02:41:26.670Z,70.72
2022-11-21T02:44:03.069Z,70.84
2022-11-21T02:46:29.576Z,70.60
2022-11-21T02:48:58.379Z,70.40
2022-11-21T02:51:24.921Z,71.01
2022-11-21T02:53:51.392Z,71.43
2022-11-21T02:56:17.860Z,70.78
2022-11-21T02:58:44.786Z,71.34
2022-11-21T03:01:11.427Z,69.72
2022-11-21T03:03:38.048Z,69.79
2022-11-21T03:06:04.636Z,70.42
2022-11-21T03:08:31.088Z,70.22
2022-11-21T03:10:57.551Z,71.27
2022-11-21T03:13:23.992Z,71.72
2022-11-21T03:15:50.511Z,71.16
2022-11-21T03:18:17.014Z,70.89
2022-11-21T03:20:43.442Z,71.61
2022-11-21T03:23:09.917Z,71.33
2022-11-21T03:25:36.369Z,71.04
2022-11-21T03:28:02.964Z,70.50
2022-11-21T03:30:29.449Z,69.52
2022-11-21T03:32:57.547Z,70.19
2022-11-21T03:35:24.948Z,69.44
2022-11-21T03:37:51.399Z,70.54
2022-11-21T03:40:17.964Z,70.56
2022-11-21T03:42:44.600Z,70.10
2022-11-21T03:45:11.277Z,70.14
2022-11-21T03:47:37.785Z,70.10
2022-11-21T03:50:04.660Z,70.03
2022-11-21T03:52:31.101Z,69.93
2022-11-21T03:54:57.581Z,69.54
2022-11-21T03:57:24.079Z,69.22
2022-11-21T03:59:50.517Z,70.02
2022-11-21T04:02:17.001Z,70.30
2022-11-21T04:04:43.437Z,70.62
2022-11-21T04:07:09.947Z,70.67
2022-11-21T04:09:36.469Z,70.18
2022-11-21T04:12:07.431Z,69.91
2022-11-21T04:14:34.243Z,70.39
2022-11-21T04:17:00.660Z,70.46
2022-11-21T04:19:27.140Z,70.61
2022-11-21T04:21:53.656Z,69.94
2022-11-21T04:24:20.132Z,70.70
2022-11-21T04:26:46.542Z,70.55
2022-11-21T04:29:13.037Z,70.27
2022-11-21T04:31:39.474Z,70.46
2022-11-21T04:34:06.354Z,69.73
2022-11-21T04:36:32.830Z,68.87
2022-11-21T04:38:59.320Z,68.95
2022-11-21T04:41:26.585Z,69.78
2022-11-21T04:43:53.006Z,69.17
2022-11-21T04:46:19.436Z,69.40
2022-11-21T04:48:45.937Z,69.20
2022-11-21T04:51:12.428Z,69.63
2022-11-21T04:53:42.927Z,68.97
2022-11-21T04:56:10.532Z,69.51
2022-11-21T04:58:36.994Z,69.97
2022-11-21T05:01:08.660Z,70.06
2022-11-21T05:03:36.463Z,70.39
2022-11-21T05:06:03.477Z,70.13
2022-11-21T05:08:29.992Z,71.10
2022-11-21T05:11:14.984Z,70.69
2022-11-21T05:13:41.440Z,70.52
2022-11-21T05:16:07.913Z,70.92
2022-11-21T05:18:34.385Z,69.93
2022-11-21T05:21:02.009Z,70.32
2022-11-21T05:23:28.492Z,70.64
2022-11-21T05:25:54.908Z,70.40
2022-11-21T05:28:21.488Z,70.34
2022-11-21T05:30:47.978Z,69.83
2022-11-21T05:33:14.539Z,69.40
2022-11-21T05:35:43.435Z,69.62
2022-11-21T05:38:10.462Z,69.83
2022-11-21T05:40:37.033Z,69.66
2022-11-21T05:43:21.915Z,70.23
2022-11-21T05:45:52.149Z,69.29
2022-11-21T05:48:18.859Z,69.90
2022-11-21T05:50:51.870Z,69.97
2022-11-21T05:53:18.839Z,69.84
2022-11-21T05:55:45.894Z,69.48
2022-11-21T05:58:12.988Z,69.62
2022-11-21T06:00:39.979Z,69.48
2022-11-21T06:03:27.573Z,69.40
2022-11-21T06:06:00.943Z,69.76
2022-11-21T06:08:30.567Z,69.89
2022-11-21T06:10:57.328Z,69.90
2022-11-21T06:13:23.904Z,69.68
2022-11-21T06:16:15.940Z,69.64
2022-11-21T06:18:46.306Z,70.37
2022-11-21T06:21:15.628Z,69.79
2022-11-21T06:23:43.152Z,69.80
2022-11-21T06:26:16.753Z,69.90
2022-11-21T06:28:44.938Z,69.74
2022-11-21T06:31:14.827Z,69.56
2022-11-21T06:33:43.140Z,70.29
2022-11-21T06:36:13.089Z,70.13
2022-11-21T06:38:40.001Z,70.11
2022-11-21T06:41:11.797Z,69.60
2022-11-21T06:43:38.667Z,69.73
2022-11-21T06:46:05.133Z,70.36
2022-11-21T06:48:33.239Z,69.92
2022-11-21T06:51:17.592Z,70.30
2022-11-21T06:53:44.770Z,70.27
2022-11-21T06:56:11.325Z,70.62
2022-11-21T06:58:37.816Z,70.53
2022-11-21T07:01:10.377Z,70.04
2022-11-21T07:03:37.295Z,70.16
2022-11-21T07:06:04.852Z,70.54
2022-11-21T07:08:33.700Z,70.93
2022-11-21T07:13:54.128Z,70.97
2022-11-21T07:16:20.692Z,71.06
2022-11-21T07:18:47.216Z,70.39
2022-11-21T07:21:13.740Z,70.40
2022-11-21T07:23:40.185Z,70.60
2022-11-21T07:26:10.189Z,69.99
2022-11-21T07:28:36.816Z,70.02
2022-11-21T07:31:08.524Z,69.86
2022-11-21T07:33:38.376Z,70.08
2022-11-21T07:36:05.280Z,70.07
2022-11-21T07:38:31.695Z,69.77
2022-11-21T07:40:58.358Z,70.99
2022-11-21T07:43:24.968Z,71.09
2022-11-21T07:45:51.448Z,70.73
2022-11-21T07:48:17.942Z,70.66
2022-11-21T07:50:44.396Z,70.17
2022-11-21T07:53:11.569Z,70.21
2022-11-21T07:55:40.799Z,71.13
2022-11-21T07:58:15.375Z,70.66
2022-11-21T08:00:42.997Z,70.24
2022-11-21T08:03:12.083Z,70.50
2022-11-21T08:05:44.265Z,70.36
2022-11-21T08:08:15.229Z,70.24
2022-11-21T08:10:46.882Z,70.46
2022-11-21T08:13:14.581Z,70.18
2022-11-21T08:15:41.488Z,70.52
2022-11-21T08:18:14.554Z,69.82
2022-11-21T08:20:42.733Z,70.07
2022-11-21T08:23:10.725Z,70.48
2022-11-21T08:25:39.700Z,69.67
2022-11-21T08:28:08.208Z,69.91
2022-11-21T08:30:36.162Z,70.08
2022-11-21T08:33:04.241Z,70.85
2022-11-21T08:35:31.002Z,71.21
2022-11-21T08:37:59.262Z,71.34
2022-11-21T08:40:28.275Z,71.41
2022-11-21T08:42:59.164Z,71.25
2022-11-21T08:45:28.468Z,71.00
2022-11-21T08:47:55.666Z,70.77
2022-11-21T08:50:23.691Z,71.30
2022-11-21T08:52:50.628Z,70.78
2022-11-21T08:55:17.196Z,70.98
2022-11-21T08:57:43.921Z,70.66
2022-11-21T09:00:14.617Z,70.00
2022-11-21T09:02:41.182Z,70.64
2022-11-21T09:05:09.254Z,70.33
2022-11-21T09:07:36.568Z,70.57
2022-11-21T09:10:04.031Z,70.57
2022-11-21T09:12:31.437Z,70.26
2022-11-21T09:15:16.654Z,70.67
2022-11-21T09:18:01.920Z,70.21
2022-11-21T09:20:28.519Z,70.39
2022-11-21T09:22:55.046Z,70.90
2022-11-21T09:25:21.540Z,70.56
2022-11-21T09:27:48.020Z,70.41
2022-11-21T09:30:15.768Z,70.27
2022-11-21T09:32:42.302Z,71.14
2022-11-21T09:35:09.181Z,70.62
2022-11-21T09:37:38.805Z,70.75
2022-11-21T09:40:06.267Z,70.25
2022-11-21T09:43:02.916Z,69.35
2022-11-21T09:45:39.909Z,69.58
2022-11-21T09:48:15.877Z,70.02
2022-11-21T09:50:54.413Z,70.01
2022-11-21T09:53:30.099Z,70.79
2022-11-21T09:56:06.287Z,70.54
2022-11-21T09:58:43.155Z,69.96
2022-11-21T10:01:14.858Z,70.14
2022-11-21T10:03:47.362Z,70.37
2022-11-21T10:06:25.206Z,69.57
2022-11-21T10:09:31.933Z,69.14
2022-11-21T10:12:37.211Z,69.95
2022-11-21T10:15:26.853Z,69.73
2022-11-21T10:18:28.202Z,69.84
2022-11-21T10:21:08.029Z,69.75
2022-11-21T10:23:59.569Z,69.88
2022-11-21T10:26:53.413Z,69.25
2022-11-21T10:29:38.557Z,68.76
2022-11-21T10:32:20.989Z,68.68
2022-11-21T10:34:53.215Z,68.55
2022-11-21T10:37:38.309Z,67.83
2022-11-21T10:40:23.798Z,68.12
2022-11-21T10:43:22.103Z,68.72
2022-11-21T10:45:50.581Z,69.33
2022-11-21T10:48:17.102Z,69.46
2022-11-21T10:51:20.209Z,69.07
2022-11-21T10:54:08.051Z,70.02
2022-11-21T10:56:37.111Z,69.77
2022-11-21T10:59:28.670Z,69.74
2022-11-21T11:02:19.492Z,69.93
2022-11-21T11:04:52.036Z,70.18
2022-11-21T11:07:28.159Z,69.63
2022-11-21T11:10:27.491Z,69.81
2022-11-21T11:16:18.332Z,68.98
2022-11-21T11:18:55.352Z,69.26
2022-11-21T11:21:25.292Z,69.44
2022-11-21T11:24:05.543Z,69.25
2022-11-21T11:26:32.486Z,69.11
2022-11-21T11:29:09.303Z,67.82
2022-11-21T11:31:54.540Z,68.07
2022-11-21T11:34:21.960Z,68.53
2022-11-21T11:37:01.998Z,67.65
2022-11-21T11:39:41.015Z,67.69
2022-11-21T11:42:51.079Z,68.27
2022-11-21T11:46:16.008Z,68.15
2022-11-21T11:49:16.693Z,68.98
2022-11-21T11:51:48.903Z,69.24
2022-11-21T11:54:22.901Z,70.02
2022-11-21T11:56:50.329Z,70.27
2022-11-21T11:59:26.082Z,70.07
2022-11-21T12:02:22.041Z,70.02
2022-11-21T12:05:02.814Z,70.07
2022-11-21T12:08:39.015Z,70.10
2022-11-21T12:11:25.235Z,70.27
2022-11-21T12:13:57.296Z,70.45
2022-11-21T12:16:26.849Z,70.33
2022-11-21T12:19:07.816Z,70.00
2022-11-21T12:21:34.344Z,69.81
2022-11-21T12:24:03.985Z,69.07
2022-11-21T12:27:05.510Z,69.02
2022-11-21T12:30:07.977Z,68.57
2022-11-21T12:33:08.479Z,68.93
2022-11-21T12:36:17.932Z,69.07
2022-11-21T12:39:00.107Z,69.70
2022-11-21T12:42:10.007Z,69.22
2022-11-21T12:45:01.740Z,69.48
2022-11-21T12:47:57.469Z,69.23
2022-11-21T12:51:20.582Z,68.88
2022-11-21T12:54:31.487Z,69.08
2022-11-21T12:57:11.558Z,68.96
2022-11-21T13:00:08.953Z,68.74
2022-11-21T13:03:00.895Z,68.91
2022-11-21T13:05:32.561Z,69.53
2022-11-21T13:08:14.298Z,69.01
2022-11-21T13:11:40.434Z,68.90
2022-11-21T13:14:29.001Z,69.19
2022-11-21T13:17:14.748Z,68.80
2022-11-21T13:20:01.811Z,68.17
2022-11-21T13:22:37.181Z,68.20
2022-11-21T13:25:09.020Z,68.06
2022-11-21T13:27:41.744Z,68.08
2022-11-21T13:30:08.810Z,67.91
2022-11-21T13:32:49.805Z,68.17
2022-11-21T13:35:16.287Z,68.09
2022-11-21T13:38:06.270Z,67.85
2022-11-21T13:41:00.432Z,68.80
2022-11-21T13:43:35.753Z,68.72
2022-11-21T13:46:02.561Z,69.04
2022-11-21T13:48:31.820Z,68.68
2022-11-21T13:51:28.752Z,67.43
2022-11-21T13:54:24.981Z,67.79
2022-11-21T13:57:41.831Z,67.94
2022-11-21T14:00:23.549Z,68.18
2022-11-21T14:03:35.701Z,67.68
2022-11-21T14:06:32.522Z,68.77
2022-11-21T14:09:36.224Z,68.08
2022-11-21T14:12:19.496Z,68.85
2022-11-21T14:15:20.241Z,68.59
2022-11-21T14:18:01.183Z,68.03
2022-11-21T14:20:54.340Z,68.36
2022-11-21T14:23:24.302Z,68.61
2022-11-21T14:26:03.612Z,68.22
2022-11-21T14:28:35.037Z,68.82
2022-11-21T14:31:10.564Z,68.44
2022-11-21T14:33:42.218Z,69.39
2022-11-21T14:36:24.325Z,69.72
2022-11-21T14:39:21.071Z,69.29
2022-11-21T14:41:52.594Z,69.80
2022-11-21T14:44:21.891Z,69.34
2022-11-21T14:46:50.581Z,68.87
2022-11-21T14:49:16.930Z,68.69
2022-11-21T14:51:48.208Z,68.68
2022-11-21T14:54:24.356Z,68.61
2022-11-21T14:57:20.769Z,68.80
2022-11-21T14:59:49.495Z,69.17
2022-11-21T15:02:23.863Z,68.71
2022-11-21T15:04:55.219Z,68.85
2022-11-21T15:07:36.261Z,69.11
2022-11-21T15:13:12.397Z,69.83
2022-11-21T15:15:47.773Z,69.78
2022-11-21T15:18:27.845Z,69.59
2022-11-21T15:21:00.117Z,69.42
2022-11-21T15:23:28.767Z,68.75
2022-11-21T15:26:00.700Z,68.90
2022-11-21T15:28:29.809Z,68.50
2022-11-21T15:31:16.291Z,68.19
2022-11-21T15:34:19.589Z,68.49
2022-11-21T15:36:42.857Z,69.37
2022-11-21T15:39:22.220Z,69.27
2022-11-21T15:41:48.694Z,69.35
2022-11-21T15:44:22.099Z,69.89
2022-11-21T15:46:52.146Z,69.79
2022-11-21T15:49:32.575Z,69.86
2022-11-21T15:52:09.258Z,70.08
2022-11-21T15:54:36.385Z,70.50
2022-11-21T15:57:02.891Z,70.34
2022-11-21T15:59:29.537Z,70.71
2022-11-21T16:01:56.152Z,70.49
2022-11-21T16:04:25.838Z,70.21
2022-11-21T16:06:55.784Z,70.52
2022-11-21T16:09:22.291Z,71.10
2022-11-21T16:11:48.942Z,70.73
2022-11-21T16:14:18.432Z,70.15
2022-11-21T16:16:47.564Z,70.04
2022-11-21T16:19:15.543Z,70.11
2022-11-21T16:21:42.676Z,70.51
2022-11-21T16:24:09.238Z,70.35
2022-11-21T16:26:35.777Z,70.34
2022-11-21T16:29:06.248Z,70.31
2022-11-21T16:31:33.250Z,70.81
2022-11-21T16:34:00.585Z,70.42
2022-11-21T16:36:32.368Z,69.75
2022-11-21T16:39:07.776Z,69.74
2022-11-21T16:41:36.842Z,70.41
2022-11-21T16:44:03.464Z,70.14
2022-11-21T16:46:29.933Z,69.97
2022-11-21T16:49:03.341Z,69.99
2022-11-21T16:51:30.744Z,70.33
2022-11-21T16:54:01.595Z,70.04
2022-11-21T16:56:30.804Z,69.54
2022-11-21T16:58:57.282Z,69.36
2022-11-21T17:01:26.905Z,69.66
2022-11-21T17:03:53.699Z,70.11
2022-11-21T17:06:24.442Z,70.19
2022-11-21T17:08:51.086Z,71.33
2022-11-21T17:11:22.944Z,71.20
2022-11-21T17:13:51.189Z,71.46
2022-11-21T17:16:20.821Z,71.18
2022-11-21T17:18:48.365Z,70.83
2022-11-21T17:21:16.590Z,70.96
2022-11-21T17:23:45.477Z,70.81
2022-11-21T17:26:16.063Z,70.92
2022-11-21T17:28:45.872Z,70.88
2022-11-21T17:31:15.861Z,71.18
2022-11-21T17:33:43.641Z,71.54
2022-11-21T17:36:14.895Z,71.31
2022-11-21T17:38:42.922Z,71.68
2022-11-21T17:41:12.465Z,71.13
2022-11-21T17:43:39.387Z,70.76
2022-11-21T17:46:13.792Z,70.35
2022-11-21T17:48:41.167Z,70.26
2022-11-21T17:51:14.613Z,70.17
2022-11-21T17:53:44.438Z,70.02
2022-11-21T17:56:14.638Z,70.09
2022-11-21T17:58:41.517Z,70.06
2022-11-21T18:01:12.220Z,70.16
2022-11-21T18:03:39.440Z,69.90
2022-11-21T18:06:09.345Z,69.59
2022-11-21T18:08:39.646Z,69.91
2022-11-21T18:11:10.125Z,69.46
2022-11-21T18:13:36.965Z,68.77
2022-11-21T18:16:07.780Z,69.41
2022-11-21T18:18:36.194Z,69.66
2022-11-21T18:21:21.292Z,70.03
2022-11-21T18:23:48.482Z,70.10
2022-11-21T18:26:24.636Z,69.83
2022-11-21T18:29:20.210Z,69.79
2022-11-21T18:31:43.873Z,69.63
2022-11-21T18:34:12.358Z,69.96
2022-11-21T18:36:38.956Z,69.75
2022-11-21T18:39:12.192Z,70.09
2022-11-21T18:41:40.444Z,69.76
2022-11-21T18:44:07.045Z,69.60
2022-11-21T18:46:36.881Z,69.41
2022-11-21T18:49:07.994Z,69.68
2022-11-21T18:51:36.725Z,69.42
2022-11-21T18:54:07.762Z,69.51
2022-11-21T18:56:35.997Z,69.68
2022-11-21T18:59:03.840Z,70.17
2022-11-21T19:01:31.675Z,69.83
2022-11-21T19:03:58.776Z,69.41
2022-11-21T19:06:27.617Z,70.03
2022-11-21T19:08:57.021Z,70.15
2022-11-21T19:11:27.341Z,70.55
2022-11-21T19:13:55.957Z,70.54
2022-11-21T19:16:26.171Z,70.96
2022-11-21T19:21:42.238Z,71.03
2022-11-21T19:24:14.512Z,70.56
2022-11-21T19:26:41.885Z,70.16
2022-11-21T19:29:09.182Z,70.15
2022-11-21T19:31:40.701Z,70.19
2022-11-21T19:34:11.158Z,69.85
2022-11-21T19:36:39.297Z,69.24
2022-11-21T19:39:05.767Z,69.30
2022-11-21T19:41:32.337Z,69.57
2022-11-21T19:44:01.696Z,69.73
2022-11-21T19:46:32.329Z,69.41
2022-11-21T19:49:00.123Z,69.72
2022-11-21T19:51:37.227Z,69.26
2022-11-21T19:54:06.239Z,69.68
2022-11-21T19:56:33.741Z,69.79
2022-11-21T19:59:00.473Z,70.03
2022-11-21T20:01:30.259Z,70.22
2022-11-21T20:04:00.754Z,70.56
2022-11-21T20:06:36.725Z,70.52
2022-11-21T20:09:10.154Z,70.53
2022-11-21T20:11:39.760Z,70.06
2022-11-21T20:14:07.143Z,70.05
2022-11-21T20:16:43.595Z,69.74
2022-11-21T20:19:14.715Z,70.26
2022-11-21T20:21:43.372Z,70.44
2022-11-21T20:24:12.027Z,69.89
2022-11-21T20:26:39.360Z,70.30
2022-11-21T20:29:06.575Z,70.75
2022-11-21T20:31:36.983Z,70.70
2022-11-21T20:34:07.874Z,70.58
2022-11-21T20:36:36.652Z,70.50
2022-11-21T20:39:18.689Z,70.10
2022-11-21T20:41:47.131Z,70.19
2022-11-21T20:45:25.773Z,70.41
2022-11-21T20:47:07.597Z,70.86
2022-11-21T20:49:34.855Z,70.72
2022-11-21T20:53:20.634Z,70.01
2022-11-21T20:54:48.157Z,70.23
2022-11-21T20:57:15.601Z,70.28
2022-11-21T20:59:42.897Z,69.78
2022-11-21T21:02:14.043Z,69.58
2022-11-21T21:04:41.018Z,69.84
2022-11-21T21:07:07.568Z,70.13
2022-11-21T21:09:34.104Z,69.77
2022-11-21T21:12:00.678Z,69.77
2022-11-21T21:14:27.154Z,69.67
2022-11-21T21:16:53.700Z,69.48
2022-11-21T21:19:24.158Z,69.46
2022-11-21T21:21:50.651Z,69.70
2022-11-21T21:24:17.352Z,69.47
2022-11-21T21:26:48.979Z,69.09
2022-11-21T21:29:20.298Z,69.27
2022-11-21T21:31:51.556Z,69.25
2022-11-21T21:34:21.046Z,69.42
2022-11-21T21:36:48.228Z,69.56
2022-11-21T21:39:14.720Z,69.64
2022-11-21T21:41:44.314Z,69.42
2022-11-21T21:44:10.799Z,69.71
2022-11-21T21:46:37.314Z,69.55
2022-11-21T21:49:03.742Z,69.58
2022-11-21T21:51:31.415Z,69.53
2022-11-21T21:53:59.420Z,69.75
2022-11-21T21:56:28.517Z,70.11
2022-11-21T21:58:57.806Z,69.79
2022-11-21T22:01:27.892Z,70.01
2022-11-21T22:03:58.602Z,70.09
2022-11-21T22:06:26.056Z,70.62
2022-11-21T22:08:55.109Z,69.82
2022-11-21T22:11:25.689Z,70.15
2022-11-21T22:13:57.317Z,70.13
2022-11-21T22:16:25.070Z,70.26
2022-11-21T22:18:52.241Z,69.74
2022-11-21T22:21:24.548Z,68.79
2022-11-21T22:24:17.669Z,69.09
2022-11-21T22:26:38.121Z,68.77
2022-11-21T22:29:04.800Z,68.41
2022-11-21T22:31:31.590Z,68.79
2022-11-21T22:33:58.452Z,69.27
2022-11-21T22:36:25.386Z,69.17
2022-11-21T22:38:56.436Z,68.85
2022-11-21T22:41:27.136Z,69.23
2022-11-21T22:43:59.423Z,69.56
2022-11-21T22:46:30.589Z,69.15
2022-11-21T22:48:57.852Z,69.50
2022-11-21T22:51:31.435Z,69.68
2022-11-21T22:53:58.088Z,70.30
2022-11-21T22:56:25.835Z,70.13
2022-11-21T22:58:53.439Z,69.78
2022-11-21T23:01:23.853Z,70.43
2022-11-21T23:03:51.469Z,70.05
2022-11-21T23:06:21.855Z,69.65
2022-11-21T23:08:48.817Z,69.58
2022-11-21T23:11:19.254Z,69.56
2022-11-21T23:13:47.724Z,69.58
2022-11-21T23:16:16.152Z,69.81
2022-11-21T23:18:43.107Z,69.39
2022-11-21T23:21:11.704Z,69.15
2022-11-21T23:23:38.912Z,69.25
2022-11-21T23:26:06.709Z,68.96
2022-11-21T23:28:33.965Z,69.13
2022-11-21T23:31:00.743Z,68.92
2022-11-21T23:33:27.280Z,68.39
2022-11-21T23:35:53.875Z,68.36
2022-11-21T23:38:21.159Z,68.29
2022-11-21T23:40:49.598Z,68.05
2022-11-21T23:43:17.677Z,68.25
2022-11-21T23:45:45.313Z,68.61
2022-11-21T23:48:11.865Z,68.93
2022-11-21T23:50:38.366Z,68.45
2022-11-21T23:53:04.892Z,69.33
2022-11-21T23:55:32.256Z,68.70
2022-11-21T23:57:58.749Z,69.14
